Time;durP1;ratioP1;P1;durP2;ratioP2;P2;SDS_P1;SDS_P2;PMS_P1;PMS_P2;Temp;Humidity;BMP_temperature;BMP_pressure;BME280_temperature;BME280_humidity;BME280_pressure;Samples;Min_cycle;Max_cycle;Signal;HPM_P1;HPM_P2
2021/06/22 00:00:24;;;;;;;;;;;;;;;20.64;55.93;101543.78;2201814;39;113966;-54
2021/06/22 00:01:56;;;;;;;;;;;;;;;20.64;56.07;101549.38;2192838;39;113732;-54
2021/06/22 00:03:28;;;;;;;;;;;;;;;20.65;55.81;101550.22;2200026;39;114037;-54
2021/06/22 00:05:00;;;;;;;;;;;;;;;20.62;56.05;101543.25;2197912;39;113721;-55
2021/06/22 00:06:32;;;;;;;;;;;;;;;20.66;55.62;101549.94;2204039;39;113852;-53
2021/06/22 00:08:04;;;;;;;;;;;;;;;20.64;55.74;101555.00;2198976;39;115285;-54
2021/06/22 00:09:36;;;;;;;;;;;;;;;20.64;55.84;101551.34;2191478;39;114955;-54
2021/06/22 00:11:08;;;;;;;;;;;;;;;20.64;55.69;101543.78;2190539;39;114959;-54
2021/06/22 00:12:40;;;;;;;;;;;;;;;20.65;55.65;101545.44;2195631;39;115078;-54
2021/06/22 00:14:12;;;;;;;;;;;;;;;20.66;55.63;101540.69;2199135;39;113833;-54
2021/06/22 00:15:44;;;;;;;;;;;;;;;20.66;56.02;101540.69;2194535;39;114462;-53
2021/06/22 00:17:16;;;;;;;;;;;;;;;20.66;55.61;101540.69;2195155;39;115542;-54
2021/06/22 00:18:48;;;;;;;;;;;;;;;20.60;56.02;101531.47;2196950;39;115855;-54
2021/06/22 00:20:21;;;;;;;;;;;;;;;20.63;55.79;101547.69;2191854;39;114041;-54
2021/06/22 00:21:53;;;;;;;;;;;;;;;20.64;55.85;101542.94;2195947;39;114818;-54
2021/06/22 00:23:25;;;;;;;;;;;;;;;20.61;55.49;101538.75;2204521;39;114840;-54
2021/06/22 00:24:57;;;;;;;;;;;;;;;20.62;55.69;101540.44;2198642;39;114724;-54
2021/06/22 00:26:29;;;;;;;;;;;;;;;20.63;55.65;101532.81;2191577;39;114254;-54
2021/06/22 00:28:01;;;;;;;;;;;;;;;20.64;55.65;101552.19;2203142;39;114890;-54
2021/06/22 00:29:32;;;;;;;;;;;;;;;20.64;55.68;101540.97;2201233;39;115910;-54
2021/06/22 00:31:04;;;;;;;;;;;;;;;20.62;55.63;101532.00;2200553;39;115525;-53
2021/06/22 00:32:37;;;;;;;;;;;;;;;20.63;55.42;101533.66;2204197;39;115467;-54
2021/06/22 00:34:08;;;;;;;;;;;;;;;20.63;55.92;101544.91;2196268;39;115419;-54
2021/06/22 00:35:40;;;;;;;;;;;;;;;20.60;55.94;101534.25;2199486;39;114609;-54
2021/06/22 00:37:15;;;;;;;;;;;;;;;20.62;55.64;101529.19;2198110;39;114717;-54
2021/06/22 00:38:47;;;;;;;;;;;;;;;20.62;55.67;101534.81;2204421;39;115677;-54
2021/06/22 00:40:19;;;;;;;;;;;;;;;20.61;55.38;101541.56;2190495;39;115026;-54
2021/06/22 00:41:51;;;;;;;;;;;;;;;20.60;55.75;101537.06;2196022;39;115908;-53
2021/06/22 00:43:23;;;;;;;;;;;;;;;20.63;55.53;101542.09;2202256;39;115667;-53
2021/06/22 00:44:57;;;;;;;;;;;;;;;20.60;55.29;101539.88;2202947;39;115585;-53
2021/06/22 00:46:29;;;;;;;;;;;;;;;20.62;55.49;101537.63;2196920;39;115487;-54
2021/06/22 00:48:01;;;;;;;;;;;;;;;20.60;55.23;101542.69;2191508;39;114592;-53
2021/06/22 00:49:33;;;;;;;;;;;;;;;20.59;55.55;101538.19;2195981;39;116034;-53
2021/06/22 00:51:05;;;;;;;;;;;;;;;20.58;55.43;101536.50;2202905;39;113906;-53
2021/06/22 00:52:38;;;;;;;;;;;;;;;20.55;55.08;101542.72;2199316;39;114151;-54
2021/06/22 00:54:10;;;;;;;;;;;;;;;20.58;55.46;101542.13;2197531;39;114359;-54
2021/06/22 00:55:42;;;;;;;;;;;;;;;20.56;55.09;101538.78;2202752;39;113886;-54
2021/06/22 00:57:25;;;;;;;;;;;;;;;20.56;55.40;101544.41;2205082;39;113982;-54
2021/06/22 00:58:58;;;;;;;;;;;;;;;20.55;55.27;101537.13;2205349;39;113961;-54
2021/06/22 01:00:30;;;;;;;;;;;;;;;20.59;55.27;101535.38;2192812;39;113989;-54
2021/06/22 01:02:03;;;;;;;;;;;;;;;20.58;54.95;101538.50;2201306;39;113693;-54
2021/06/22 01:03:35;;;;;;;;;;;;;;;20.56;55.10;101541.59;2204396;39;114316;-54
2021/06/22 01:05:07;;;;;;;;;;;;;;;20.56;54.91;101535.16;2201929;39;114004;-53
2021/06/22 01:06:39;;;;;;;;;;;;;;;20.56;54.82;101538.78;2195631;39;113733;-53
2021/06/22 01:08:12;;;;;;;;;;;;;;;20.55;54.98;101537.13;2196834;39;113613;-53
2021/06/22 01:09:44;;;;;;;;;;;;;;;20.52;55.07;101540.53;2197785;39;114004;-54
2021/06/22 01:11:16;;;;;;;;;;;;;;;20.53;55.17;101535.75;2203833;39;113686;-54
2021/06/22 01:12:48;;;;;;;;;;;;;;;20.54;55.04;101534.59;2207816;39;113767;-54
2021/06/22 01:14:20;;;;;;;;;;;;;;;20.53;54.65;101535.75;2204986;39;114858;-54
2021/06/22 01:15:52;;;;;;;;;;;;;;;20.53;55.07;101530.13;2204797;39;114783;-53
2021/06/22 01:17:24;;;;;;;;;;;;;;;20.53;55.31;101538.56;2204607;39;113841;-54
2021/06/22 01:18:57;;;;;;;;;;;;;;;20.54;54.90;101541.03;2205965;39;115099;-54
2021/06/22 01:20:30;;;;;;;;;;;;;;;20.54;54.89;101540.19;2203851;39;114792;-54
2021/06/22 01:22:03;;;;;;;;;;;;;;;20.52;54.70;101534.91;2201382;39;114708;-53
2021/06/22 01:23:35;;;;;;;;;;;;;;;20.53;54.99;101536.59;2192109;39;114115;-53
2021/06/22 01:25:08;;;;;;;;;;;;;;;20.54;54.55;101531.78;2195773;39;114928;-54
2021/06/22 01:26:44;;;;;;;;;;;;;;;20.53;54.90;101536.59;2202005;39;114798;-54
2021/06/22 01:28:16;;;;;;;;;;;;;;;20.51;54.70;101538.00;2204901;39;114637;-54
2021/06/22 01:29:47;;;;;;;;;;;;;;;20.50;54.65;101534.34;2204819;39;114838;-54
2021/06/22 01:31:19;;;;;;;;;;;;;;;20.51;54.85;101536.03;2200980;39;114759;-53
2021/06/22 01:32:51;;;;;;;;;;;;;;;20.51;54.60;101536.03;2201592;39;114939;-54
2021/06/22 01:34:24;;;;;;;;;;;;;;;20.52;54.47;101534.91;2209164;39;114898;-53
2021/06/22 01:35:56;;;;;;;;;;;;;;;20.53;54.89;101539.41;2197095;39;115435;-53
2021/06/22 01:37:28;;;;;;;;;;;;;;;20.52;54.60;101534.91;2202341;39;115508;-53
2021/06/22 01:39:00;;;;;;;;;;;;;;;20.51;54.84;101541.66;2206328;39;115519;-53
2021/06/22 01:40:32;;;;;;;;;;;;;;;20.53;54.86;101530.97;2204274;39;114950;-57
2021/06/22 01:42:04;;;;;;;;;;;;;;;20.52;54.54;101532.09;2204577;39;115454;-54
2021/06/22 01:43:36;;;;;;;;;;;;;;;20.49;54.64;101537.47;2196725;39;115582;-54
2021/06/22 01:45:08;;;;;;;;;;;;;;;20.50;54.78;101527.88;2195976;39;115573;-54
2021/06/22 01:46:40;;;;;;;;;;;;;;;20.48;54.88;101531.00;2201585;39;115566;-54
2021/06/22 01:48:12;;;;;;;;;;;;;;;20.50;54.46;101531.53;2198606;39;114830;-54
2021/06/22 01:49:44;;;;;;;;;;;;;;;20.49;54.33;101537.47;2201602;39;115684;-54
2021/06/22 01:51:16;;;;;;;;;;;;;;;20.49;54.67;101526.25;2204047;39;115548;-53
2021/06/22 01:52:49;;;;;;;;;;;;;;;20.51;54.35;101533.22;2198211;39;115766;-54
2021/06/22 01:54:21;;;;;;;;;;;;;;;20.48;54.20;101536.63;2192649;39;115590;-54
2021/06/22 01:55:53;;;;;;;;;;;;;;;20.49;54.35;101537.47;2204143;39;115929;-54
2021/06/22 01:57:25;;;;;;;;;;;;;;;20.49;54.08;101538.28;2204798;39;113689;-54
2021/06/22 01:58:59;;;;;;;;;;;;;;;20.47;54.50;101532.13;2191719;39;113983;-54
2021/06/22 02:00:31;;;;;;;;;;;;;;;20.47;54.60;101540.56;2197167;39;114029;-54
2021/06/22 02:02:03;;;;;;;;;;;;;;;20.48;54.14;101545.03;2201972;39;113959;-53
2021/06/22 02:03:35;;;;;;;;;;;;;;;20.48;54.38;101541.41;2207083;39;114150;-54
2021/06/22 02:05:07;;;;;;;;;;;;;;;20.47;54.19;101543.38;2201641;39;114007;-54
2021/06/22 02:06:39;;;;;;;;;;;;;;;20.48;54.48;101544.22;2202144;39;115221;-54
2021/06/22 02:08:10;;;;;;;;;;;;;;;20.46;54.28;101541.69;2205935;39;113693;-54
2021/06/22 02:09:42;;;;;;;;;;;;;;;20.44;54.06;101543.97;2200101;39;113722;-54
2021/06/22 02:11:14;;;;;;;;;;;;;;;20.47;54.53;101553.75;2193027;39;113709;-54
2021/06/22 02:12:46;;;;;;;;;;;;;;;20.45;54.11;101559.66;2191418;39;114196;-53
2021/06/22 02:14:18;;;;;;;;;;;;;;;20.48;54.35;101558.25;2198196;39;114111;-53
2021/06/22 02:15:50;;;;;;;;;;;;;;;20.46;54.13;101564.13;2195066;39;113899;-56
2021/06/22 02:17:22;;;;;;;;;;;;;;;20.46;54.10;101555.72;2203860;39;113750;-54
2021/06/22 02:18:54;;;;;;;;;;;;;;;20.45;53.70;101567.22;2204343;39;114286;-54
2021/06/22 02:20:26;;;;;;;;;;;;;;;20.44;53.62;101566.41;2202235;39;114521;-53
2021/06/22 02:21:58;;;;;;;;;;;;;;;20.44;53.66;101562.78;2203706;39;114158;-54
2021/06/22 02:23:30;;;;;;;;;;;;;;;20.44;54.25;101569.22;2200816;39;114629;-54
2021/06/22 02:25:03;;;;;;;;;;;;;;;20.44;54.08;101555.19;2199971;39;113855;-53
2021/06/22 02:26:35;;;;;;;;;;;;;;;20.42;53.72;101563.06;2193739;39;114904;-53
2021/06/22 02:28:08;;;;;;;;;;;;;;;20.45;53.79;101564.41;2199929;39;114019;-54
2021/06/22 02:29:40;;;;;;;;;;;;;;;20.42;53.81;101552.66;2193466;39;114838;-54
2021/06/22 02:31:12;;;;;;;;;;;;;;;20.42;54.38;101555.47;2198204;39;114907;-54
2021/06/22 02:32:44;;;;;;;;;;;;;;;20.43;54.17;101561.94;2200294;39;114726;-54
2021/06/22 02:34:16;;;;;;;;;;;;;;;20.42;54.07;101557.44;2198571;39;113933;-53
2021/06/22 02:35:48;;;;;;;;;;;;;;;20.41;54.01;101565.03;2190487;39;115115;-54
2021/06/22 02:37:20;;;;;;;;;;;;;;;20.41;54.31;101573.44;2200289;39;115113;-54
2021/06/22 02:38:52;;;;;;;;;;;;;;;20.42;54.18;101569.50;2203052;39;114914;-54
2021/06/22 02:40:24;;;;;;;;;;;;;;;20.38;53.99;101565.63;2202421;39;115498;-54
2021/06/22 02:41:56;;;;;;;;;;;;;;;20.40;53.62;101563.34;2198968;39;114512;-54
2021/06/22 02:43:28;;;;;;;;;;;;;;;20.39;53.82;101569.25;2198817;39;115573;-54
2021/06/22 02:45:00;;;;;;;;;;;;;;;20.38;53.63;101570.38;2200617;39;116188;-54
2021/06/22 02:46:32;;;;;;;;;;;;;;;20.36;54.05;101565.06;2200318;39;115955;-54
2021/06/22 02:48:05;;;;;;;;;;;;;;;20.37;53.89;101577.13;2200460;39;115933;-54
2021/06/22 02:49:37;;;;;;;;;;;;;;;20.36;53.75;101570.66;2192013;39;114578;-54
2021/06/22 02:51:09;;;;;;;;;;;;;;;20.35;53.90;101576.59;2197169;39;115437;-54
2021/06/22 02:52:42;;;;;;;;;;;;;;;20.37;54.42;101574.31;2203769;39;115905;-54
2021/06/22 02:54:13;;;;;;;;;;;;;;;20.33;54.01;101570.41;2194287;39;114540;-53
2021/06/22 02:55:45;;;;;;;;;;;;;;;20.33;54.09;101573.22;2199592;39;115521;-54
2021/06/22 02:57:17;;;;;;;;;;;;;;;20.35;53.82;101571.78;2199576;39;115845;-54
2021/06/22 02:58:49;;;;;;;;;;;;;;;20.36;53.80;101578.25;2193026;39;115423;-54
2021/06/22 03:00:22;;;;;;;;;;;;;;;20.36;53.82;101575.44;2200416;39;115524;-54
2021/06/22 03:01:54;;;;;;;;;;;;;;;20.35;53.84;101573.78;2206368;39;115771;-54
2021/06/22 03:03:26;;;;;;;;;;;;;;;20.34;53.58;101584.16;2203076;39;113683;-54
2021/06/22 03:04:58;;;;;;;;;;;;;;;20.34;53.86;101572.09;2193569;39;113936;-54
2021/06/22 03:06:30;;;;;;;;;;;;;;;20.35;53.83;101585.00;2193864;39;114780;-54
2021/06/22 03:08:02;;;;;;;;;;;;;;;20.35;53.96;101583.00;2202000;39;113661;-53
2021/06/22 03:09:34;;;;;;;;;;;;;;;20.33;53.48;101584.44;2204396;39;114058;-54
2021/06/22 03:11:05;;;;;;;;;;;;;;;20.34;53.91;101580.53;2193749;39;114200;-54
2021/06/22 03:12:38;;;;;;;;;;;;;;;20.34;53.74;101581.38;2198933;39;113861;-53
2021/06/22 03:14:10;;;;;;;;;;;;;;;20.33;53.78;101576.03;2194408;39;113916;-54
2021/06/22 03:15:42;;;;;;;;;;;;;;;20.33;53.90;101578.84;2199903;39;113622;-53
2021/06/22 03:17:14;;;;;;;;;;;;;;;20.32;53.69;101579.97;2204579;39;113684;-54
2021/06/22 03:18:46;;;;;;;;;;;;;;;20.36;53.47;101581.88;2203639;39;114601;-54
2021/06/22 03:20:18;;;;;;;;;;;;;;;20.34;53.86;101591.75;2200313;39;114045;-53
2021/06/22 03:21:50;;;;;;;;;;;;;;;20.33;53.49;101584.44;2193181;39;113992;-54
2021/06/22 03:23:22;;;;;;;;;;;;;;;20.32;53.40;101582.78;2198649;39;114376;-53
2021/06/22 03:24:54;;;;;;;;;;;;;;;20.31;53.28;101586.69;2200858;39;114211;-54
2021/06/22 03:26:26;;;;;;;;;;;;;;;20.30;53.64;101590.66;2204746;39;114786;-54
2021/06/22 03:27:58;;;;;;;;;;;;;;;20.30;53.93;101585.88;2203340;39;114596;-53
2021/06/22 03:29:30;;;;;;;;;;;;;;;20.31;53.45;101586.69;2202016;39;115182;-54
2021/06/22 03:31:02;;;;;;;;;;;;;;;20.31;53.63;101581.94;2196408;39;114826;-54
2021/06/22 03:32:34;;;;;;;;;;;;;;;20.30;53.55;101585.03;2203758;39;114900;-53
2021/06/22 03:34:05;;;;;;;;;;;;;;;20.30;53.50;101585.03;2198649;39;114850;-54
2021/06/22 03:35:37;;;;;;;;;;;;;;;20.30;53.59;101585.03;2199830;39;114220;-53
2021/06/22 03:37:09;;;;;;;;;;;;;;;20.29;53.37;101586.13;2200745;39;115113;-55
2021/06/22 03:38:41;;;;;;;;;;;;;;;20.29;53.24;101588.94;2203313;39;114908;-54
2021/06/22 03:40:13;;;;;;;;;;;;;;;20.28;53.44;101582.50;2197642;39;115105;-54
2021/06/22 03:41:45;;;;;;;;;;;;;;;20.28;53.46;101595.69;2197845;39;115438;-54
2021/06/22 03:43:19;;;;;;;;;;;;;;;20.29;53.36;101586.97;2195988;39;115314;-54
2021/06/22 03:44:51;;;;;;;;;;;;;;;20.28;53.42;101595.69;2207630;39;114015;-54
2021/06/22 03:46:23;;;;;;;;;;;;;;;20.29;53.43;101588.94;2203504;39;115937;-53
2021/06/22 03:47:55;;;;;;;;;;;;;;;20.28;53.60;101590.06;2203792;39;115651;-53
2021/06/22 03:49:27;;;;;;;;;;;;;;;20.27;53.24;101597.63;2204142;39;115514;-53
2021/06/22 03:50:59;;;;;;;;;;;;;;;20.25;53.39;101587.84;2201466;39;114633;-53
2021/06/22 03:52:31;;;;;;;;;;;;;;;20.26;53.05;101595.16;2204841;39;115655;-54
2021/06/22 03:54:03;;;;;;;;;;;;;;;20.26;53.55;101586.72;2203577;39;115792;-54
2021/06/22 03:55:35;;;;;;;;;;;;;;;20.25;53.21;101594.31;2199043;39;115860;-53
2021/06/22 03:57:07;;;;;;;;;;;;;;;20.25;53.35;101588.69;2204814;39;115544;-54
2021/06/22 03:58:39;;;;;;;;;;;;;;;20.25;53.44;101596.25;2198181;39;116407;-54
2021/06/22 04:00:11;;;;;;;;;;;;;;;20.23;53.19;101592.91;2202154;39;115397;-53
2021/06/22 04:01:42;;;;;;;;;;;;;;;20.24;53.66;101595.44;2203281;39;115547;-54
2021/06/22 04:03:15;;;;;;;;;;;;;;;20.22;53.64;101596.81;2202926;39;115883;-53
2021/06/22 04:04:47;;;;;;;;;;;;;;;20.23;53.63;101598.50;2198966;39;114888;-54
2021/06/22 04:06:19;;;;;;;;;;;;;;;20.23;53.44;101592.91;2194928;39;115641;-53
2021/06/22 04:07:51;;;;;;;;;;;;;;;20.22;53.34;101603.28;2200280;39;114050;-53
2021/06/22 04:09:26;;;;;;;;;;;;;;;20.24;53.67;101608.63;2196440;39;113865;-55
2021/06/22 04:10:58;;;;;;;;;;;;;;;20.24;53.62;101606.66;2199765;39;113645;-53
2021/06/22 04:12:29;;;;;;;;;;;;;;;20.23;53.22;101610.56;2198927;39;113690;-53
2021/06/22 04:14:01;;;;;;;;;;;;;;;20.23;53.58;101609.72;2194363;39;114004;-53
2021/06/22 04:15:34;;;;;;;;;;;;;;;20.21;53.48;101615.66;2195470;39;113799;-53
2021/06/22 04:17:06;;;;;;;;;;;;;;;20.21;53.55;101618.47;2197496;39;113955;-54
2021/06/22 04:18:38;;;;;;;;;;;;;;;20.22;53.90;101624.88;2201466;39;113771;-53
2021/06/22 04:20:10;;;;;;;;;;;;;;;20.21;53.43;101626.88;2204094;39;113767;-53
2021/06/22 04:21:42;;;;;;;;;;;;;;;20.21;53.65;101628.84;2203592;39;113728;-53
2021/06/22 04:23:14;;;;;;;;;;;;;;;20.22;53.55;101630.50;2201010;39;113689;-54
2021/06/22 04:24:46;;;;;;;;;;;;;;;20.20;53.38;101619.59;2202440;39;113596;-54
2021/06/22 04:26:18;;;;;;;;;;;;;;;20.22;53.99;101622.09;2204006;39;114050;-53
2021/06/22 04:27:50;;;;;;;;;;;;;;;20.22;53.51;101627.69;2204358;39;114592;-54
2021/06/22 04:29:22;;;;;;;;;;;;;;;20.21;53.53;101637.25;2207605;39;113505;-53
2021/06/22 04:30:53;;;;;;;;;;;;;;;20.20;53.79;101627.16;2204686;39;115193;-54
2021/06/22 04:32:25;;;;;;;;;;;;;;;20.20;53.70;101628.00;2203988;39;113872;-53
2021/06/22 04:33:57;;;;;;;;;;;;;;;20.19;53.64;101626.31;2201250;39;115269;-53
2021/06/22 04:35:30;;;;;;;;;;;;;;;20.20;53.83;101629.97;2201268;39;115042;-54
2021/06/22 04:37:02;;;;;;;;;;;;;;;20.20;54.11;101624.34;2190747;39;114799;-54
2021/06/22 04:38:34;;;;;;;;;;;;;;;20.20;53.55;101629.97;2191284;39;114711;-54
2021/06/22 04:40:06;;;;;;;;;;;;;;;20.18;53.87;101630.25;2201171;39;115131;-54
2021/06/22 04:41:38;;;;;;;;;;;;;;;20.18;53.83;101630.25;2198687;39;114929;-54
2021/06/22 04:43:10;;;;;;;;;;;;;;;20.18;53.94;101630.25;2198609;39;115372;-53
2021/06/22 04:44:42;;;;;;;;;;;;;;;20.19;54.18;101631.09;2203136;39;114889;-55
2021/06/22 04:46:14;;;;;;;;;;;;;;;20.18;53.93;101632.22;2202800;39;115260;-54
2021/06/22 04:47:46;;;;;;;;;;;;;;;20.18;53.83;101641.47;2203071;39;114913;-54
2021/06/22 04:49:18;;;;;;;;;;;;;;;20.18;54.03;101633.06;2192459;39;115349;-54
2021/06/22 04:50:52;;;;;;;;;;;;;;;20.17;53.93;101633.38;2203716;39;114834;-54
2021/06/22 04:52:24;;;;;;;;;;;;;;;20.18;53.59;101637.81;2196706;39;116328;-54
2021/06/22 04:53:56;;;;;;;;;;;;;;;20.17;53.67;101634.19;2203189;39;115505;-53
2021/06/22 04:55:28;;;;;;;;;;;;;;;20.16;54.44;101631.69;2200076;39;115898;-53
2021/06/22 04:57:00;;;;;;;;;;;;;;;20.16;53.81;101640.94;2196286;39;115603;-53
2021/06/22 04:58:32;;;;;;;;;;;;;;;20.16;53.86;101643.75;2208383;39;115771;-53
2021/06/22 05:00:04;;;;;;;;;;;;;;;20.17;53.82;101645.41;2203678;39;115490;-53
2021/06/22 05:01:37;;;;;;;;;;;;;;;20.16;53.93;101646.56;2198264;39;115856;-53
2021/06/22 05:03:09;;;;;;;;;;;;;;;20.17;53.74;101653.00;2201576;39;115675;-54
2021/06/22 05:04:41;;;;;;;;;;;;;;;20.17;54.09;101648.19;2195763;39;114565;-54
2021/06/22 05:06:13;;;;;;;;;;;;;;;20.18;53.92;101649.03;2202152;39;115892;-53
2021/06/22 05:07:44;;;;;;;;;;;;;;;20.19;54.40;101656.34;2196986;39;115390;-54
2021/06/22 05:09:16;;;;;;;;;;;;;;;20.18;54.40;101652.69;2200282;39;115482;-53
2021/06/22 05:10:48;;;;;;;;;;;;;;;20.17;54.69;101661.41;2203174;39;115522;-54
2021/06/22 05:12:20;;;;;;;;;;;;;;;20.18;54.29;101649.88;2205842;39;116102;-54
2021/06/22 05:13:52;;;;;;;;;;;;;;;20.20;54.70;101664.47;2206245;39;114213;-54
2021/06/22 05:15:24;;;;;;;;;;;;;;;20.21;55.27;101665.31;2187905;39;113763;-54
2021/06/22 05:16:56;;;;;;;;;;;;;;;20.22;55.51;101665.00;2200209;39;113708;-53
2021/06/22 05:18:28;;;;;;;;;;;;;;;20.24;55.75;101662.78;2201773;39;113817;-54
2021/06/22 05:20:00;;;;;;;;;;;;;;;20.26;55.55;101660.50;2203914;39;114699;-54
2021/06/22 05:21:32;;;;;;;;;;;;;;;20.30;55.74;101660.81;2195785;39;114636;-53
2021/06/22 05:23:04;;;;;;;;;;;;;;;20.34;56.02;101670.31;2198940;39;114295;-53
2021/06/22 05:24:36;;;;;;;;;;;;;;;20.36;56.05;101662.44;2192685;39;113763;-53
2021/06/22 05:26:08;;;;;;;;;;;;;;;20.39;56.80;101654.31;2192029;39;113795;-54
2021/06/22 05:27:40;;;;;;;;;;;;;;;20.42;56.86;101664.09;2200600;39;113898;-54
2021/06/22 05:29:12;;;;;;;;;;;;;;;20.46;56.81;101664.34;2203861;39;113992;-54
2021/06/22 05:30:44;;;;;;;;;;;;;;;20.49;56.88;101660.97;2204621;39;114029;-54
2021/06/22 05:32:17;;;;;;;;;;;;;;;20.53;56.98;101664.88;2208243;39;113816;-53
2021/06/22 05:33:49;;;;;;;;;;;;;;;20.56;56.76;101661.47;2209571;39;114329;-54
2021/06/22 05:35:21;;;;;;;;;;;;;;;20.59;57.02;101663.69;2199477;39;114747;-54
2021/06/22 05:36:53;;;;;;;;;;;;;;;20.63;56.96;101665.63;2203116;39;115450;-54
2021/06/22 05:38:25;;;;;;;;;;;;;;;20.66;56.97;101673.50;2204812;39;114793;-53
2021/06/22 05:39:57;;;;;;;;;;;;;;;20.71;56.91;101672.63;2209869;39;113911;-53
2021/06/22 05:41:29;;;;;;;;;;;;;;;20.74;56.81;101677.63;2204481;39;114587;-54
2021/06/22 05:43:01;;;;;;;;;;;;;;;20.77;56.38;101671.44;2204281;39;114779;-54
2021/06/22 05:44:33;;;;;;;;;;;;;;;20.80;56.78;101679.28;2203382;39;114845;-54
2021/06/22 05:46:09;;;;;;;;;;;;;;;20.84;56.66;101678.41;2205289;39;114939;-53
2021/06/22 05:47:41;;;;;;;;;;;;;;;20.87;56.54;101682.59;2205586;39;115075;-54
2021/06/22 05:49:13;;;;;;;;;;;;;;;20.92;56.51;101681.72;2197768;39;114958;-54
2021/06/22 05:50:45;;;;;;;;;;;;;;;20.95;56.20;101681.97;2194402;39;114956;-54
2021/06/22 05:52:17;;;;;;;;;;;;;;;20.99;56.33;101685.84;2194059;39;114854;-54
2021/06/22 05:53:49;;;;;;;;;;;;;;;21.03;56.27;101684.13;2199159;39;114061;-54
2021/06/22 05:55:21;;;;;;;;;;;;;;;21.07;56.30;101690.03;2207434;39;115622;-54
2021/06/22 05:56:54;;;;;;;;;;;;;;;21.10;56.28;101695.03;2197858;39;115851;-54
2021/06/22 05:58:26;;;;;;;;;;;;;;;21.14;56.30;101685.75;2202580;39;115380;-54
2021/06/22 05:59:57;;;;;;;;;;;;;;;21.18;55.98;101691.63;2204437;39;116165;-53
2021/06/22 06:01:29;;;;;;;;;;;;;;;21.22;56.34;101687.09;2204443;39;115408;-53
2021/06/22 06:03:01;;;;;;;;;;;;;;;21.25;55.92;101683.72;2204158;39;115319;-53
2021/06/22 06:04:33;;;;;;;;;;;;;;;21.29;55.90;101690.41;2203358;39;115421;-53
2021/06/22 06:06:05;;;;;;;;;;;;;;;21.33;55.88;101694.31;2197335;39;115507;-53
2021/06/22 06:07:37;;;;;;;;;;;;;;;21.36;55.45;101693.69;2190192;39;115486;-53
2021/06/22 06:09:09;;;;;;;;;;;;;;;21.39;55.54;101693.13;2194025;39;115499;-54
2021/06/22 06:10:41;;;;;;;;;;;;;;;21.44;55.55;101692.25;2202223;39;115557;-53
2021/06/22 06:12:13;;;;;;;;;;;;;;;21.48;55.15;101696.97;2204175;39;115883;-53
2021/06/22 06:13:45;;;;;;;;;;;;;;;21.50;55.15;101691.03;2202369;39;116345;-53
2021/06/22 06:15:17;;;;;;;;;;;;;;;21.53;55.01;101696.91;2201976;39;115379;-54
2021/06/22 06:16:49;;;;;;;;;;;;;;;21.56;55.21;101690.69;2204636;39;115719;-54
2021/06/22 06:18:21;;;;;;;;;;;;;;;21.60;55.04;101699.38;2207460;39;115785;-53
2021/06/22 06:19:53;;;;;;;;;;;;;;;21.64;54.90;101706.06;2204950;39;114115;-54
2021/06/22 06:21:25;;;;;;;;;;;;;;;21.66;54.71;101699.03;2204669;39;114049;-54
2021/06/22 06:22:58;;;;;;;;;;;;;;;21.69;54.65;101704.06;2204795;39;114307;-54
2021/06/22 06:24:29;;;;;;;;;;;;;;;21.72;54.70;101709.06;2197989;39;114214;-53
2021/06/22 06:26:01;;;;;;;;;;;;;;;21.74;54.43;101709.63;2200555;39;113691;-54
2021/06/22 06:29:18;;;;;;;;;;;;;;;21.84;53.92;101713.47;2202641;39;113628;-53
2021/06/22 06:30:50;;;;;;;;;;;;;;;21.84;53.71;101717.13;2204638;39;113957;-53
2021/06/22 06:32:22;;;;;;;;;;;;;;;21.85;53.82;101720.78;2208725;39;113860;-53
2021/06/22 06:33:54;;;;;;;;;;;;;;;21.87;53.72;101716.50;2187966;39;113768;-53
2021/06/22 06:35:26;;;;;;;;;;;;;;;21.89;54.01;101727.47;2197615;39;113696;-53
2021/06/22 06:36:59;;;;;;;;;;;;;;;21.91;54.09;101731.66;2197640;39;113750;-53
2021/06/22 06:38:35;;;;;;;;;;;;;;;21.93;53.93;101725.75;2196390;39;114007;-53
2021/06/22 06:40:08;;;;;;;;;;;;;;;21.94;53.85;101727.44;2205782;39;113715;-53
2021/06/22 06:41:40;;;;;;;;;;;;;;;21.96;53.70;101733.59;2204439;39;115083;-53
2021/06/22 06:43:12;;;;;;;;;;;;;;;21.96;53.75;101733.59;2204483;39;114823;-53
2021/06/22 06:44:44;;;;;;;;;;;;;;;21.99;53.52;101730.19;2196118;39;114701;-54
2021/06/22 06:46:16;;;;;;;;;;;;;;;22.01;53.05;101737.19;2202680;39;114859;-53
2021/06/22 06:47:48;;;;;;;;;;;;;;;22.02;53.51;101729.59;2204692;39;115224;-53
2021/06/22 06:49:20;;;;;;;;;;;;;;;22.03;53.47;101734.09;2201790;39;114978;-53
2021/06/22 06:50:52;;;;;;;;;;;;;;;22.04;53.70;101730.13;2205489;39;115397;-54
2021/06/22 06:52:24;;;;;;;;;;;;;;;22.06;53.80;101727.84;2204948;39;114834;-54
2021/06/22 06:53:56;;;;;;;;;;;;;;;22.09;53.74;101735.69;2204116;39;114928;-53
2021/06/22 06:55:28;;;;;;;;;;;;;;;22.10;53.56;101735.41;2198279;39;114855;-54
2021/06/22 06:57:01;;;;;;;;;;;;;;;22.11;52.19;101739.06;2207642;39;114018;-53
2021/06/22 06:58:33;;;;;;;;;;;;;;;22.11;51.88;101734.28;2197428;39;115066;-53
2021/06/22 07:00:05;;;;;;;;;;;;;;;22.11;51.49;101737.09;2198188;39;115162;-54
2021/06/22 07:01:38;;;;;;;;;;;;;;;22.14;50.97;101735.63;2205846;39;115653;-53
2021/06/22 07:03:10;;;;;;;;;;;;;;;22.12;50.39;101741.56;2205109;39;115540;-53
2021/06/22 07:04:41;;;;;;;;;;;;;;;22.13;50.62;101731.97;2204964;39;115718;-54
2021/06/22 07:06:14;;;;;;;;;;;;;;;22.15;50.21;101734.50;2195970;39;115794;-54
2021/06/22 07:07:46;;;;;;;;;;;;;;;22.16;50.20;101745.47;2195594;39;115467;-53
2021/06/22 07:09:18;;;;;;;;;;;;;;;22.15;50.47;101728.88;2193267;39;116064;-53
2021/06/22 07:10:50;;;;;;;;;;;;;;;22.17;50.85;101732.22;2203060;39;115348;-53
2021/06/22 07:12:21;;;;;;;;;;;;;;;22.12;48.96;101744.38;2203313;39;116319;-53
2021/06/22 07:13:54;;;;;;;;;;;;;;;21.95;46.93;101751.63;2202058;39;116631;-54
2021/06/22 07:15:26;;;;;;;;;;;;;;;21.84;46.30;101748.06;2204255;39;114500;-53
2021/06/22 07:16:59;;;;;;;;;;;;;;;21.76;45.72;101745.06;2196528;39;115605;-53
2021/06/22 07:18:32;;;;;;;;;;;;;;;21.70;45.50;101753.56;2194848;39;115591;-53
2021/06/22 07:20:05;;;;;;;;;;;;;;;21.69;45.64;101751.03;2194598;39;116150;-54
2021/06/22 07:21:37;;;;;;;;;;;;;;;21.80;46.12;101748.97;2193482;39;116727;-53
2021/06/22 07:23:08;;;;;;;;;;;;;;;21.84;46.23;101748.06;2201467;39;114537;-54
2021/06/22 07:24:40;;;;;;;;;;;;;;;21.86;46.30;101747.75;2200070;39;113712;-53
2021/06/22 07:26:13;;;;;;;;;;;;;;;21.87;46.15;101757.88;2202922;39;113930;-53
2021/06/22 07:27:44;;;;;;;;;;;;;;;21.86;46.10;101761.81;2203216;39;114160;-53
2021/06/22 07:29:16;;;;;;;;;;;;;;;21.87;46.45;101752.25;2200649;39;114936;-53
2021/06/22 07:30:48;;;;;;;;;;;;;;;21.89;46.40;101752.78;2202080;39;113874;-53
2021/06/22 07:32:24;;;;;;;;;;;;;;;21.87;46.25;101753.09;2199668;39;113991;-54
2021/06/22 07:33:56;;;;;;;;;;;;;;;21.89;46.41;101756.44;2195001;39;115407;-54
2021/06/22 07:35:32;;;;;;;;;;;;;;;21.90;46.25;101757.25;2201870;39;114018;-54
2021/06/22 07:37:04;;;;;;;;;;;;;;;21.89;46.67;101764.06;2201393;39;114040;-54
2021/06/22 07:38:36;;;;;;;;;;;;;;;21.88;46.80;101762.38;2202204;39;114236;-53
2021/06/22 07:40:09;;;;;;;;;;;;;;;21.87;46.71;101758.72;2188246;39;114074;-53
2021/06/22 07:41:41;;;;;;;;;;;;;;;21.92;46.63;101760.63;2191517;39;113697;-53
2021/06/22 07:43:13;;;;;;;;;;;;;;;21.89;46.71;101759.25;2195472;39;113830;-53
2021/06/22 07:44:45;;;;;;;;;;;;;;;21.88;46.77;101768.84;2192405;39;113844;-54
2021/06/22 07:46:17;;;;;;;;;;;;;;;21.87;46.76;101764.34;2199269;39;114042;-53
2021/06/22 07:47:49;;;;;;;;;;;;;;;21.87;47.27;101767.16;2200409;39;114702;-53
2021/06/22 07:49:25;;;;;;;;;;;;;;;21.86;47.25;101764.63;2198808;39;115129;-53